createdAt,value
2023-03-12T00:01:17.237Z,3.83
2023-03-12T00:03:45.760Z,3.13
2023-03-12T00:06:14.231Z,4.20
2023-03-12T00:08:42.687Z,3.10
2023-03-12T00:11:13.081Z,3.57
2023-03-12T00:13:43.226Z,3.37
2023-03-12T00:16:13.414Z,3.70
2023-03-12T00:18:43.386Z,3.70
2023-03-12T00:21:11.972Z,3.60
2023-03-12T00:23:40.364Z,3.40
2023-03-12T00:26:11.115Z,3.17
2023-03-12T00:28:40.265Z,3.17
2023-03-12T00:31:18.087Z,3.40
2023-03-12T00:33:46.909Z,3.07
2023-03-12T00:36:15.282Z,3.30
2023-03-12T00:38:44.039Z,3.37
2023-03-12T00:41:12.563Z,3.57
2023-03-12T00:43:41.198Z,4.50
2023-03-12T00:46:09.842Z,3.50
2023-03-12T00:48:39.682Z,2.90
2023-03-12T00:51:09.165Z,3.00
2023-03-12T00:53:37.856Z,3.20
2023-03-12T00:56:07.812Z,3.00
2023-03-12T00:58:36.508Z,3.27
2023-03-12T01:01:05.278Z,2.80
2023-03-12T01:03:33.714Z,3.57
2023-03-12T01:06:03.684Z,3.53
2023-03-12T01:08:32.492Z,2.87
2023-03-12T01:11:01.189Z,3.17
2023-03-12T01:13:29.721Z,3.43
2023-03-12T01:15:58.174Z,2.90
2023-03-12T01:18:26.610Z,3.17
2023-03-12T01:20:55.229Z,4.10
2023-03-12T01:23:25.146Z,3.57
2023-03-12T01:25:55.583Z,4.10
2023-03-12T01:28:24.628Z,3.30
2023-03-12T01:30:53.257Z,4.23
2023-03-12T01:33:22.966Z,2.80
2023-03-12T01:35:51.625Z,3.63
2023-03-12T01:38:20.987Z,4.13
2023-03-12T01:40:51.085Z,3.43
2023-03-12T01:43:29.651Z,3.13
2023-03-12T01:46:07.817Z,3.43
2023-03-12T01:48:41.109Z,3.50
2023-03-12T01:51:12.338Z,3.50
2023-03-12T01:53:43.529Z,3.43
2023-03-12T01:56:14.949Z,3.50
2023-03-12T01:58:49.087Z,3.30
2023-03-12T02:01:20.312Z,3.70
2023-03-12T02:03:52.162Z,3.23
2023-03-12T02:06:27.364Z,3.03
2023-03-12T02:08:56.907Z,3.13
2023-03-12T02:11:26.691Z,3.47
2023-03-12T02:13:55.272Z,3.33
2023-03-12T02:16:24.462Z,3.50
2023-03-12T02:18:56.265Z,3.23
2023-03-12T02:21:26.978Z,3.50
2023-03-12T02:24:02.521Z,3.47
2023-03-12T02:26:36.151Z,2.87
2023-03-12T02:29:05.258Z,3.40
2023-03-12T02:31:40.064Z,3.50
2023-03-12T02:34:08.694Z,4.00
2023-03-12T02:36:38.154Z,2.93
2023-03-12T02:39:06.904Z,3.63
2023-03-12T02:41:41.247Z,3.20
2023-03-12T02:44:13.072Z,3.87
2023-03-12T02:46:44.763Z,2.93
2023-03-12T02:49:14.789Z,2.80
2023-03-12T02:51:45.306Z,2.83
2023-03-12T02:54:15.725Z,3.43
2023-03-12T02:56:45.556Z,3.63
2023-03-12T02:59:14.615Z,4.20
2023-03-12T03:01:45.179Z,3.60
2023-03-12T03:04:14.310Z,3.60
2023-03-12T03:06:47.843Z,3.63
2023-03-12T03:09:16.809Z,4.13
2023-03-12T03:11:46.754Z,3.87
2023-03-12T03:14:15.652Z,3.73
2023-03-12T03:16:44.522Z,3.33
2023-03-12T03:19:15.670Z,3.97
2023-03-12T03:21:44.385Z,3.37
2023-03-12T03:24:13.046Z,4.03
2023-03-12T03:26:41.477Z,3.50
2023-03-12T03:29:11.787Z,3.47
2023-03-12T03:31:40.100Z,3.27
2023-03-12T03:34:08.697Z,4.40
2023-03-12T03:36:37.114Z,4.10
2023-03-12T03:39:10.573Z,4.40
2023-03-12T03:41:39.394Z,3.87
2023-03-12T03:44:08.108Z,4.23
2023-03-12T03:46:40.225Z,4.37
2023-03-12T03:49:11.478Z,3.70
2023-03-12T03:51:43.162Z,3.70
2023-03-12T03:54:16.051Z,3.63
2023-03-12T03:56:47.587Z,3.70
2023-03-12T03:59:16.685Z,4.73
2023-03-12T04:01:47.308Z,3.53
2023-03-12T04:04:15.988Z,3.50
2023-03-12T04:06:44.412Z,4.00
2023-03-12T04:09:12.735Z,3.73
2023-03-12T04:11:42.045Z,3.60
2023-03-12T04:14:12.582Z,4.83
2023-03-12T04:16:45.177Z,3.67
2023-03-12T04:19:15.093Z,4.07
2023-03-12T04:21:43.644Z,4.00
2023-03-12T04:24:16.268Z,3.60
2023-03-12T04:26:45.635Z,3.57
2023-03-12T04:29:15.213Z,3.73
2023-03-12T04:31:43.820Z,4.17
2023-03-12T04:34:14.412Z,3.83
2023-03-12T04:36:46.096Z,4.57
2023-03-12T04:39:17.680Z,4.30
2023-03-12T04:41:46.723Z,4.57
2023-03-12T04:44:17.118Z,3.87
2023-03-12T04:46:46.355Z,3.90
2023-03-12T04:49:18.189Z,3.93
2023-03-12T04:51:49.080Z,4.00
2023-03-12T04:54:17.601Z,3.80
2023-03-12T04:56:45.997Z,3.90
2023-03-12T04:59:14.497Z,4.53
2023-03-12T05:01:44.919Z,4.43
2023-03-12T05:04:21.474Z,3.93
2023-03-12T05:06:52.634Z,3.87
2023-03-12T05:09:20.986Z,3.60
2023-03-12T05:11:49.721Z,4.07
2023-03-12T05:14:21.256Z,3.90
2023-03-12T05:16:50.380Z,3.53
2023-03-12T05:19:18.768Z,3.77
2023-03-12T05:21:47.128Z,3.80
2023-03-12T05:24:16.878Z,3.80
2023-03-12T05:26:45.294Z,4.33
2023-03-12T05:29:17.509Z,3.57
2023-03-12T05:31:46.289Z,3.73
2023-03-12T05:34:15.634Z,3.57
2023-03-12T05:36:47.392Z,4.00
2023-03-12T05:39:21.864Z,4.03
2023-03-12T05:41:50.812Z,3.73
2023-03-12T05:44:21.312Z,3.67
2023-03-12T05:46:54.823Z,3.40
2023-03-12T05:49:26.319Z,3.10
2023-03-12T05:51:56.156Z,3.57
2023-03-12T05:54:26.780Z,3.87
2023-03-12T05:56:56.149Z,3.80
2023-03-12T05:59:26.537Z,4.00
2023-03-12T06:01:56.119Z,3.90
2023-03-12T06:04:24.591Z,3.27
2023-03-12T06:06:54.348Z,3.80
2023-03-12T06:09:23.108Z,3.33
2023-03-12T06:11:52.914Z,3.90
2023-03-12T06:14:21.328Z,4.07
2023-03-12T06:16:50.207Z,4.07
2023-03-12T06:19:18.479Z,4.10
2023-03-12T06:21:49.655Z,4.20
2023-03-12T06:24:18.041Z,3.63
2023-03-12T06:26:53.391Z,3.57
2023-03-12T06:29:21.756Z,3.60
2023-03-12T06:31:52.378Z,3.80
2023-03-12T06:34:20.956Z,3.90
2023-03-12T06:36:49.276Z,3.83
2023-03-12T06:39:18.512Z,3.03
2023-03-12T06:41:46.900Z,4.30
2023-03-12T06:44:16.788Z,4.17
2023-03-12T06:46:45.348Z,4.63
2023-03-12T06:49:14.073Z,4.30
2023-03-12T06:51:42.448Z,4.70
2023-03-12T06:54:10.878Z,4.23
2023-03-12T06:56:39.525Z,4.70
2023-03-12T06:59:08.246Z,4.13
2023-03-12T07:01:38.010Z,5.23
2023-03-12T07:04:06.421Z,4.30
2023-03-12T07:06:34.908Z,3.63
2023-03-12T07:09:05.091Z,4.30
2023-03-12T07:11:33.639Z,3.60
2023-03-12T07:14:01.913Z,4.47
2023-03-12T07:16:31.457Z,4.63
2023-03-12T07:19:01.815Z,4.63
2023-03-12T07:21:30.108Z,3.93
2023-03-12T07:23:58.986Z,4.70
2023-03-12T07:26:27.436Z,4.53
2023-03-12T07:28:56.050Z,4.67
2023-03-12T07:31:24.429Z,4.97
2023-03-12T07:33:53.084Z,4.10
2023-03-12T07:36:23.926Z,5.80
2023-03-12T07:38:52.389Z,4.83
2023-03-12T07:41:20.969Z,4.50
2023-03-12T07:43:49.620Z,5.00
2023-03-12T07:46:18.175Z,4.60
2023-03-12T07:48:47.393Z,4.50
2023-03-12T07:51:15.840Z,4.70
2023-03-12T07:53:45.785Z,4.73
2023-03-12T07:56:14.354Z,4.97
2023-03-12T07:58:43.061Z,5.03
2023-03-12T08:01:11.583Z,5.13
2023-03-12T08:03:40.273Z,4.33
2023-03-12T08:06:09.054Z,5.60
2023-03-12T08:08:38.457Z,5.23
2023-03-12T08:11:09.087Z,4.53
2023-03-12T08:13:37.531Z,4.97
2023-03-12T08:16:09.231Z,5.27
2023-03-12T08:18:37.983Z,5.97
2023-03-12T08:21:06.902Z,5.30
2023-03-12T08:23:35.738Z,5.67
2023-03-12T08:26:04.328Z,6.00
2023-03-12T08:28:34.005Z,6.00
2023-03-12T08:31:02.505Z,6.07
2023-03-12T08:33:30.961Z,5.90
2023-03-12T08:35:59.500Z,6.13
2023-03-12T08:38:28.016Z,6.60
2023-03-12T08:40:58.025Z,6.50
2023-03-12T08:43:29.211Z,6.73
2023-03-12T08:46:01.255Z,6.87
2023-03-12T08:48:31.491Z,6.87
2023-03-12T08:51:04.187Z,7.30
2023-03-12T08:53:33.799Z,7.20
2023-03-12T08:56:02.680Z,6.60
2023-03-12T08:58:31.742Z,7.00
2023-03-12T09:01:01.440Z,8.20
2023-03-12T09:03:29.884Z,7.13
2023-03-12T09:06:06.388Z,7.93
2023-03-12T09:08:35.150Z,8.57
2023-03-12T09:11:04.070Z,8.37
2023-03-12T09:13:50.781Z,7.77
2023-03-12T09:16:22.935Z,8.43
2023-03-12T09:18:51.396Z,9.07
2023-03-12T09:21:19.871Z,8.80
2023-03-12T09:23:48.360Z,9.00
2023-03-12T09:26:17.000Z,8.70
2023-03-12T09:28:45.486Z,9.20
2023-03-12T09:31:15.329Z,9.57
2023-03-12T09:33:45.204Z,10.53
2023-03-12T09:36:13.779Z,11.30
2023-03-12T09:38:42.177Z,11.13
2023-03-12T09:41:20.104Z,11.97
2023-03-12T09:43:54.078Z,11.70
2023-03-12T09:46:28.036Z,11.17
2023-03-12T09:48:59.958Z,12.87
2023-03-12T09:51:33.848Z,12.37
2023-03-12T09:54:05.238Z,13.73
2023-03-12T09:56:35.049Z,13.60
2023-03-12T09:59:04.287Z,13.57
2023-03-12T10:01:38.751Z,13.87
2023-03-12T10:04:52.550Z,14.60
2023-03-12T10:07:33.464Z,14.53
2023-03-12T10:10:27.705Z,14.00
2023-03-12T10:13:11.529Z,15.67
2023-03-12T10:15:49.857Z,15.20
2023-03-12T10:18:28.898Z,15.67
2023-03-12T10:21:12.036Z,15.13
2023-03-12T10:23:53.396Z,13.83
2023-03-12T10:26:25.722Z,14.77
2023-03-12T10:29:00.287Z,14.87
2023-03-12T10:31:33.469Z,14.93
2023-03-12T10:34:03.189Z,16.67
2023-03-12T10:36:38.145Z,15.63
2023-03-12T10:39:14.468Z,15.73
2023-03-12T10:41:44.841Z,17.20
2023-03-12T10:44:21.377Z,16.60
2023-03-12T10:47:00.823Z,18.23
2023-03-12T10:49:32.599Z,18.50
2023-03-12T10:52:06.329Z,19.47
2023-03-12T10:54:37.754Z,20.60
2023-03-12T10:57:06.933Z,18.87
2023-03-12T10:59:37.750Z,19.90
2023-03-12T11:02:34.406Z,18.27
2023-03-12T11:05:04.298Z,17.97
2023-03-12T11:07:35.862Z,18.80
2023-03-12T11:10:17.104Z,20.67
2023-03-12T11:12:59.885Z,21.37
2023-03-12T11:15:32.020Z,19.73
2023-03-12T11:18:27.312Z,21.07
2023-03-12T11:20:57.994Z,18.37
2023-03-12T11:23:30.436Z,20.73
2023-03-12T11:26:03.285Z,19.80
2023-03-12T11:28:38.634Z,19.43
2023-03-12T11:31:11.392Z,20.07
2023-03-12T11:33:40.106Z,19.80
2023-03-12T11:36:20.677Z,21.30
2023-03-12T11:38:59.038Z,20.87
2023-03-12T11:41:41.246Z,20.70
2023-03-12T11:44:23.382Z,21.23
2023-03-12T11:47:06.992Z,22.37
2023-03-12T11:49:51.595Z,21.07
2023-03-12T11:52:29.733Z,22.60
2023-03-12T11:55:24.022Z,21.30
2023-03-12T11:58:03.658Z,20.60
2023-03-12T12:00:40.128Z,21.63
2023-03-12T12:03:43.566Z,21.97
2023-03-12T12:06:18.431Z,22.40
2023-03-12T12:08:57.858Z,21.87
2023-03-12T12:11:34.438Z,22.60
2023-03-12T12:14:15.396Z,22.67
2023-03-12T12:17:09.291Z,22.73
2023-03-12T12:20:04.141Z,20.60
2023-03-12T12:22:40.904Z,22.63
2023-03-12T12:25:31.429Z,21.33
2023-03-12T12:28:21.516Z,20.23
2023-03-12T12:31:00.181Z,20.60
2023-03-12T12:33:42.790Z,18.70
2023-03-12T12:36:11.996Z,18.43
2023-03-12T12:38:46.015Z,17.97
2023-03-12T12:41:18.816Z,15.60
2023-03-12T12:43:50.901Z,16.70
2023-03-12T12:46:22.263Z,14.93
2023-03-12T12:48:54.998Z,13.43
2023-03-12T12:51:27.959Z,12.73
2023-03-12T12:54:03.688Z,10.20
2023-03-12T12:56:35.493Z,11.27
2023-03-12T12:59:27.998Z,9.77
2023-03-12T13:01:58.420Z,11.27
2023-03-12T13:04:29.974Z,10.47
2023-03-12T13:07:05.206Z,9.33
2023-03-12T13:09:40.341Z,9.70
2023-03-12T13:12:22.814Z,9.80
2023-03-12T13:14:54.529Z,8.00
2023-03-12T13:17:30.959Z,8.70
2023-03-12T13:20:10.971Z,8.23
2023-03-12T13:22:59.736Z,8.30
2023-03-12T13:25:49.933Z,8.43
2023-03-12T13:28:37.133Z,7.83
2023-03-12T13:31:38.558Z,7.50
2023-03-12T13:34:33.149Z,8.03
2023-03-12T13:37:03.570Z,7.60
2023-03-12T13:39:36.656Z,7.07
2023-03-12T13:42:36.254Z,7.97
2023-03-12T13:45:24.806Z,8.30
2023-03-12T13:47:59.892Z,8.70
2023-03-12T13:50:32.927Z,7.83
2023-03-12T13:53:07.189Z,7.23
2023-03-12T13:55:37.710Z,7.17
2023-03-12T13:58:12.557Z,8.37
2023-03-12T14:00:45.726Z,8.77
2023-03-12T14:03:24.248Z,8.17
2023-03-12T14:05:56.485Z,7.80
2023-03-12T14:08:41.384Z,7.03
2023-03-12T14:11:35.961Z,7.40
2023-03-12T14:14:29.944Z,7.63
2023-03-12T14:17:01.511Z,7.17
2023-03-12T14:19:34.216Z,8.27
2023-03-12T14:22:06.049Z,6.77
2023-03-12T14:24:41.713Z,8.67
2023-03-12T14:27:19.033Z,7.67
2023-03-12T14:29:53.854Z,7.50
2023-03-12T14:32:26.813Z,7.67
2023-03-12T14:35:01.914Z,6.63
2023-03-12T14:37:34.622Z,8.17
2023-03-12T14:40:08.518Z,6.97
2023-03-12T14:42:37.893Z,9.00
2023-03-12T14:45:15.030Z,7.60
2023-03-12T14:47:45.305Z,6.90
2023-03-12T14:50:21.575Z,8.03
2023-03-12T14:52:50.403Z,7.03
2023-03-12T14:55:22.972Z,7.20
2023-03-12T14:58:03.908Z,7.43
2023-03-12T15:00:32.777Z,6.43
2023-03-12T15:03:05.837Z,7.93
2023-03-12T15:05:37.136Z,7.17
2023-03-12T15:08:06.646Z,7.37
2023-03-12T15:10:35.281Z,6.33
2023-03-12T15:13:05.869Z,7.23
2023-03-12T15:15:42.828Z,8.37
2023-03-12T15:18:17.306Z,7.50
2023-03-12T15:20:48.332Z,7.20
2023-03-12T15:23:19.768Z,7.90
2023-03-12T15:26:09.323Z,8.40
2023-03-12T15:28:37.992Z,7.43
2023-03-12T15:31:10.068Z,7.60
2023-03-12T15:33:39.518Z,8.37
2023-03-12T15:36:24.166Z,7.03
2023-03-12T15:38:55.792Z,7.27
2023-03-12T15:41:28.135Z,7.23
2023-03-12T15:43:58.826Z,7.47
2023-03-12T15:46:28.934Z,6.93
2023-03-12T15:49:00.313Z,7.53
2023-03-12T15:51:35.495Z,7.10
2023-03-12T15:54:07.402Z,7.23
2023-03-12T15:56:37.055Z,7.43
2023-03-12T15:59:21.427Z,6.70
2023-03-12T16:01:51.493Z,7.70
2023-03-12T16:04:20.436Z,7.97
2023-03-12T16:06:51.652Z,6.93
2023-03-12T16:09:24.532Z,7.10
2023-03-12T16:11:54.874Z,7.27
2023-03-12T16:14:26.157Z,7.07
2023-03-12T16:16:54.840Z,7.13
2023-03-12T16:19:24.806Z,7.20
2023-03-12T16:21:54.699Z,6.47
2023-03-12T16:24:23.531Z,6.57
2023-03-12T16:26:55.017Z,8.07
2023-03-12T16:29:28.448Z,6.73
2023-03-12T16:31:57.827Z,6.23
2023-03-12T16:34:26.489Z,6.17
2023-03-12T16:36:56.756Z,6.40
2023-03-12T16:39:25.703Z,6.83
2023-03-12T16:41:54.254Z,7.13
2023-03-12T16:44:23.238Z,7.03
2023-03-12T16:46:51.787Z,6.47
2023-03-12T16:49:21.198Z,7.03
2023-03-12T16:51:49.733Z,6.30
2023-03-12T16:54:19.647Z,7.50
2023-03-12T16:56:49.683Z,6.70
2023-03-12T16:59:25.538Z,7.13
2023-03-12T17:01:55.480Z,7.37
2023-03-12T17:04:24.356Z,8.10
2023-03-12T17:06:52.968Z,6.23
2023-03-12T17:09:23.136Z,7.80
2023-03-12T17:11:52.909Z,6.97
2023-03-12T17:14:23.546Z,7.20
2023-03-12T17:16:52.715Z,6.80
2023-03-12T17:19:21.285Z,8.03
2023-03-12T17:21:49.970Z,6.97
2023-03-12T17:24:18.740Z,8.20
2023-03-12T17:26:52.002Z,7.10
2023-03-12T17:29:20.724Z,7.00
2023-03-12T17:31:49.195Z,7.90
2023-03-12T17:34:18.110Z,6.03
2023-03-12T17:36:46.725Z,7.37
2023-03-12T17:39:15.327Z,8.20
2023-03-12T17:41:44.016Z,7.27
2023-03-12T17:44:14.891Z,6.13
2023-03-12T17:46:56.521Z,6.73
2023-03-12T17:49:27.264Z,7.23
2023-03-12T17:51:55.868Z,9.43
2023-03-12T17:54:24.333Z,7.03
2023-03-12T17:56:52.958Z,7.10
2023-03-12T17:59:23.026Z,6.13
2023-03-12T18:01:51.531Z,7.47
2023-03-12T18:04:19.954Z,8.33
2023-03-12T18:06:48.746Z,6.60
2023-03-12T18:09:17.303Z,8.57
2023-03-12T18:11:48.868Z,6.80
2023-03-12T18:14:17.459Z,6.07
2023-03-12T18:16:47.668Z,7.47
2023-03-12T18:19:16.674Z,7.27
2023-03-12T18:21:48.360Z,7.10
2023-03-12T18:24:16.850Z,6.80
2023-03-12T18:26:45.840Z,6.63
2023-03-12T18:29:14.372Z,6.97
2023-03-12T18:31:42.989Z,7.00
2023-03-12T18:34:13.012Z,7.67
2023-03-12T18:36:41.452Z,7.40
2023-03-12T18:39:10.608Z,7.80
2023-03-12T18:41:41.965Z,7.17
2023-03-12T18:44:10.693Z,6.53
2023-03-12T18:46:39.252Z,5.83
2023-03-12T18:49:09.218Z,6.53
2023-03-12T18:51:39.130Z,8.00
2023-03-12T18:54:07.766Z,6.43
2023-03-12T18:56:39.411Z,7.17
2023-03-12T18:59:09.893Z,8.13
2023-03-12T19:01:38.819Z,6.80
2023-03-12T19:04:07.365Z,7.33
2023-03-12T19:06:49.832Z,7.50
2023-03-12T19:09:21.523Z,7.53
2023-03-12T19:11:50.652Z,7.00
2023-03-12T19:14:19.266Z,7.17
2023-03-12T19:16:47.698Z,5.83
2023-03-12T19:19:17.200Z,6.53
2023-03-12T19:21:45.710Z,8.23
2023-03-12T19:24:14.212Z,6.70
2023-03-12T19:26:44.090Z,7.83
2023-03-12T19:29:12.547Z,7.50
2023-03-12T19:31:41.086Z,8.33
2023-03-12T19:34:09.656Z,7.10
2023-03-12T19:36:38.512Z,5.87
2023-03-12T19:39:15.202Z,6.67
2023-03-12T19:41:50.298Z,6.40
2023-03-12T19:44:18.890Z,6.40
2023-03-12T19:46:47.448Z,7.07
2023-03-12T19:49:15.875Z,7.37
2023-03-12T19:51:44.593Z,6.57
2023-03-12T19:54:12.946Z,6.40
2023-03-12T19:56:42.297Z,6.23
2023-03-12T19:59:12.174Z,5.73
2023-03-12T20:01:41.551Z,7.10
2023-03-12T20:04:11.590Z,6.63
2023-03-12T20:06:40.667Z,6.97
2023-03-12T20:09:09.228Z,6.50
2023-03-12T20:11:38.052Z,6.10
2023-03-12T20:14:06.951Z,6.17
2023-03-12T20:16:37.326Z,6.40
2023-03-12T20:19:05.829Z,6.53
2023-03-12T20:21:34.314Z,6.87
2023-03-12T20:24:03.320Z,6.10
2023-03-12T20:26:31.741Z,7.43
2023-03-12T20:29:02.808Z,7.60
2023-03-12T20:31:31.351Z,6.67
2023-03-12T20:34:01.722Z,6.27
2023-03-12T20:36:30.484Z,6.77
2023-03-12T20:38:59.511Z,7.60
2023-03-12T20:41:28.049Z,6.97
2023-03-12T20:43:57.542Z,6.57
2023-03-12T20:46:26.293Z,6.37
2023-03-12T20:48:56.808Z,7.80
2023-03-12T20:51:26.944Z,6.67
2023-03-12T20:53:55.420Z,7.20
2023-03-12T20:56:23.938Z,6.33
2023-03-12T20:58:54.133Z,6.63
2023-03-12T21:01:22.921Z,6.97
2023-03-12T21:03:51.698Z,6.50
2023-03-12T21:06:20.158Z,6.57
2023-03-12T21:08:50.098Z,7.20
2023-03-12T21:11:20.692Z,6.17
2023-03-12T21:13:49.310Z,6.77
2023-03-12T21:16:18.352Z,6.40
2023-03-12T21:18:46.963Z,6.70
2023-03-12T21:21:16.014Z,6.67
2023-03-12T21:23:44.755Z,7.70
2023-03-12T21:26:14.712Z,7.10
2023-03-12T21:28:46.073Z,6.83
2023-03-12T21:31:16.888Z,6.00
2023-03-12T21:33:45.454Z,6.53
2023-03-12T21:36:16.104Z,5.63
2023-03-12T21:38:44.755Z,6.50
2023-03-12T21:41:17.273Z,6.87
2023-03-12T21:43:46.871Z,6.03
2023-03-12T21:46:17.465Z,6.10
2023-03-12T21:48:47.542Z,6.23
2023-03-12T21:51:17.638Z,6.07
2023-03-12T21:53:46.583Z,6.63
2023-03-12T21:56:17.834Z,7.87
2023-03-12T21:58:46.488Z,7.03
2023-03-12T22:01:17.507Z,6.33
2023-03-12T22:03:47.439Z,5.97
2023-03-12T22:06:17.152Z,7.10
2023-03-12T22:08:48.409Z,6.80
2023-03-12T22:11:18.460Z,5.73
2023-03-12T22:13:47.056Z,5.80
2023-03-12T22:16:16.247Z,6.47
2023-03-12T22:18:46.536Z,5.17
2023-03-12T22:21:17.286Z,6.20
2023-03-12T22:23:48.127Z,5.60
2023-03-12T22:26:18.408Z,6.27
2023-03-12T22:28:50.924Z,5.97
2023-03-12T22:31:20.908Z,6.67
2023-03-12T22:33:50.067Z,7.00
2023-03-12T22:36:19.604Z,6.00
2023-03-12T22:38:48.751Z,4.93
2023-03-12T22:41:20.786Z,5.77
2023-03-12T22:43:50.608Z,5.57
2023-03-12T22:46:20.901Z,5.07
2023-03-12T22:48:54.077Z,5.57
2023-03-12T22:51:22.529Z,5.67
2023-03-12T22:53:50.964Z,5.40
2023-03-12T22:56:23.605Z,5.00
2023-03-12T22:58:52.996Z,4.20
2023-03-12T23:01:23.722Z,4.73
2023-03-12T23:03:52.690Z,5.17
2023-03-12T23:06:23.665Z,5.60
2023-03-12T23:08:52.726Z,5.07
2023-03-12T23:11:25.411Z,5.50
2023-03-12T23:13:54.516Z,5.57
2023-03-12T23:16:25.291Z,5.17
2023-03-12T23:18:55.244Z,5.13
2023-03-12T23:21:24.897Z,5.77
2023-03-12T23:23:54.084Z,6.70
2023-03-12T23:26:28.875Z,5.20
2023-03-12T23:28:58.956Z,4.80
2023-03-12T23:31:28.543Z,4.87
2023-03-12T23:33:58.705Z,4.40
2023-03-12T23:36:27.361Z,5.50
2023-03-12T23:38:55.790Z,5.50
2023-03-12T23:41:29.342Z,4.27
2023-03-12T23:43:58.363Z,5.73
2023-03-12T23:46:27.602Z,5.33
2023-03-12T23:48:56.302Z,5.37
2023-03-12T23:51:26.124Z,6.00
2023-03-12T23:53:57.819Z,5.10
2023-03-12T23:56:32.241Z,4.50
2023-03-12T23:59:00.987Z,5.93
